McCook, NE

11:39 PM CST on March 03, 2015 (GMT -0600)
McCook Municipal | Change Station
CLOSE
Current Station
Airport
Location: McCook,
Elevation: 2579 ft
Nearby Weather Stations

Elev 2579 ft 40.20 °N, 100.59 °W | Updated 20 minutes ago

Snow
Snow
20 °F
Feels Like 7 °F
N
13
Wind Variable Wind from NNE

Today
High -- | Low -- °F
--% Chance of Precip.
Yesterday
High -- | Low -- °F
Precip. -- in
7:13 AM 6:36 PM
Waxing Gibbous, 98% visible
Pressure 30.12 in
Visibility 2.0 miles
Clouds Overcast 1800 ft
Windchill 7 °F
Dew Point 15 °F
Humidity 81%
Rainfall 0.00 in
Snow Depth Not available.
UV 0 out of 12
Pollen .70 out of 12
Air Quality Not available.
Flu Activity Not available.
SPECI KMCK 040519Z AUTO 02011KT 2SM -SN OVC018 M07/M09 A3012 RMK AO2 P0000 T10671094

More Conditions Fewer Conditions

Pressure 30.12 in
Visibility 2.0 miles
Clouds Overcast 1800 ft
Windchill 7 °F
Dew Point 15 °F
Humidity 81%
Rainfall 0.00 in
Snow Depth Not available.
UV 0 out of 12
Pollen .70 out of 12
Air Quality Not available.
Flu Activity Not available.
SPECI KMCK 040519Z AUTO 02011KT 2SM -SN OVC018 M07/M09 A3012 RMK AO2 P0000 T10671094

More Conditions Fewer Conditions

10-Day Weather Forecast

Almanac

Astronomy

Mar. 03, 2015 Rise Set
Actual Time
Civil Twilight
Nautical Twilight
Astronomical Twilight
Moon
Length of Visible Light
Length of Day
Tomorrow will be .
, % of the Moon is Illuminated

Today's Extremes

State Highs State Lows

Community

WunderPhotos

Upload Photos

1,802,400 photos uploaded!

WunderBlogs® & News

Nearby

Air Quality

  Air Quality AQ Index Pollutant
Not available.

Snow Depth

Station Depth Elevation

Earthquake Activity

City Distance Mag. Time & Date
Minimum magnitude displayed is 2.5.

Coastal Water Temperatures

Place Temperature

Nearby Weather Stations